createdAt,value
2017-12-27T00:00:39.095Z,942.59
2017-12-27T00:01:49.071Z,942.65
2017-12-27T00:02:59.048Z,942.71
2017-12-27T00:04:09.027Z,942.66
2017-12-27T00:05:18.762Z,942.69
2017-12-27T00:06:28.741Z,942.71
2017-12-27T00:07:38.713Z,942.67
2017-12-27T00:08:48.698Z,942.69
2017-12-27T00:09:58.736Z,942.68
2017-12-27T00:11:08.452Z,942.7
2017-12-27T00:12:18.433Z,942.7
2017-12-27T00:13:28.144Z,942.69
2017-12-27T00:14:37.859Z,942.7
2017-12-27T00:15:47.836Z,942.76
2017-12-27T00:16:57.022Z,942.83
2017-12-27T00:18:06.740Z,942.77
2017-12-27T00:19:16.755Z,942.73
2017-12-27T00:20:26.736Z,942.73
2017-12-27T00:21:36.719Z,942.74
2017-12-27T00:22:46.431Z,942.74
2017-12-27T00:23:56.404Z,942.75
2017-12-27T00:25:06.123Z,942.83
2017-12-27T00:26:16.098Z,942.77
2017-12-27T00:27:25.810Z,942.77
2017-12-27T00:28:35.791Z,942.82
2017-12-27T00:29:45.813Z,942.88
2017-12-27T00:30:55.786Z,942.89
2017-12-27T00:32:05.772Z,942.83
2017-12-27T00:33:15.753Z,942.9
2017-12-27T00:34:25.486Z,942.85
2017-12-27T00:35:34.938Z,942.9
2017-12-27T00:36:44.915Z,942.92
2017-12-27T00:37:54.624Z,942.91
2017-12-27T00:39:04.600Z,942.96
2017-12-27T00:40:14.055Z,942.95
2017-12-27T00:41:24.039Z,942.91
2017-12-27T00:42:33.487Z,942.88
2017-12-27T00:43:43.197Z,942.83
2017-12-27T00:44:53.181Z,942.9
2017-12-27T00:46:02.892Z,942.88
2017-12-27T00:47:12.865Z,942.93
2017-12-27T00:48:22.585Z,942.88
2017-12-27T00:49:32.307Z,942.92
2017-12-27T00:50:42.291Z,942.9
2017-12-27T00:51:51.476Z,942.94
2017-12-27T00:53:01.448Z,942.89
2017-12-27T00:54:11.157Z,942.92
2017-12-27T00:55:20.604Z,943.02
2017-12-27T00:56:30.312Z,942.97
2017-12-27T00:57:40.290Z,942.91
2017-12-27T00:58:49.999Z,942.93
2017-12-27T00:59:59.710Z,942.87
2017-12-27T01:01:09.162Z,942.91
2017-12-27T01:02:19.142Z,942.96
2017-12-27T01:03:28.322Z,942.9
2017-12-27T01:04:38.300Z,942.84
2017-12-27T01:05:48.275Z,942.93
2017-12-27T01:06:57.723Z,942.95
2017-12-27T01:08:06.912Z,942.96
2017-12-27T01:09:16.891Z,942.94
2017-12-27T01:10:26.677Z,942.91
2017-12-27T01:11:36.650Z,942.93
2017-12-27T01:12:46.666Z,942.9
2017-12-27T01:13:56.641Z,942.94
2017-12-27T01:15:06.617Z,942.94
2017-12-27T01:16:16.640Z,942.89
2017-12-27T01:17:26.618Z,942.94
2017-12-27T01:18:36.593Z,942.89
2017-12-27T01:19:46.573Z,942.97
2017-12-27T01:20:56.589Z,942.96
2017-12-27T01:22:06.574Z,942.91
2017-12-27T01:23:16.548Z,942.93
2017-12-27T01:24:26.260Z,942.92
2017-12-27T01:25:36.256Z,942.96
2017-12-27T01:26:45.975Z,943
2017-12-27T01:27:55.946Z,943
2017-12-27T01:29:05.928Z,943.05
2017-12-27T01:30:15.906Z,943.07
2017-12-27T01:31:25.625Z,942.98
2017-12-27T01:32:35.338Z,943.09
2017-12-27T01:33:45.047Z,943.09
2017-12-27T01:34:55.027Z,943.13
2017-12-27T01:36:05.055Z,943.1
2017-12-27T01:37:14.772Z,943.08
2017-12-27T01:38:24.750Z,943.1
2017-12-27T01:39:34.729Z,943.15
2017-12-27T01:40:44.704Z,943.13
2017-12-27T01:41:54.417Z,943.16
2017-12-27T01:43:03.863Z,943.07
2017-12-27T01:44:13.572Z,943.17
2017-12-27T01:45:23.283Z,943.11
2017-12-27T01:46:33.264Z,943.12
2017-12-27T01:47:43.239Z,943.05
2017-12-27T01:48:52.686Z,943.05
2017-12-27T01:50:02.399Z,943.14
2017-12-27T01:51:12.379Z,943.12
2017-12-27T01:52:22.354Z,943.16
2017-12-27T01:53:32.334Z,943.14
2017-12-27T01:54:42.310Z,943.18
2017-12-27T01:55:52.018Z,943.16
2017-12-27T01:57:01.991Z,943.15
2017-12-27T01:58:11.968Z,943.06
2017-12-27T01:59:23.684Z,943.09
2017-12-27T02:00:33.680Z,943.07
2017-12-27T02:01:43.389Z,943.19
2017-12-27T02:02:53.368Z,943.1
2017-12-27T02:04:03.390Z,943.12
2017-12-27T02:05:13.102Z,943.17
2017-12-27T02:06:23.073Z,943.18
2017-12-27T02:07:33.047Z,943.27
2017-12-27T02:08:42.761Z,943.21
2017-12-27T02:09:52.735Z,943.26
2017-12-27T02:11:02.728Z,943.29
2017-12-27T02:12:12.710Z,943.25
2017-12-27T02:13:22.691Z,943.31
2017-12-27T02:14:32.668Z,943.33
2017-12-27T02:15:42.385Z,943.31
2017-12-27T02:16:52.357Z,943.3
2017-12-27T02:18:02.067Z,943.38
2017-12-27T02:19:12.047Z,943.31
2017-12-27T02:20:21.760Z,943.36
2017-12-27T02:21:31.471Z,943.4
2017-12-27T02:22:41.450Z,943.44
2017-12-27T02:23:51.162Z,943.5
2017-12-27T02:25:00.606Z,943.45
2017-12-27T02:26:10.581Z,943.46
2017-12-27T02:27:20.552Z,943.43
2017-12-27T02:28:30.267Z,943.48
2017-12-27T02:29:40.242Z,943.48
2017-12-27T02:30:50.218Z,943.42
2017-12-27T02:32:00.196Z,943.45
2017-12-27T02:33:10.180Z,943.45
2017-12-27T02:34:20.154Z,943.53
2017-12-27T02:35:29.870Z,943.46
2017-12-27T02:36:39.588Z,943.43
2017-12-27T02:37:49.303Z,943.39
2017-12-27T02:38:59.018Z,943.38
2017-12-27T02:40:08.730Z,943.43
2017-12-27T02:41:18.440Z,943.45
2017-12-27T02:42:28.416Z,943.46
2017-12-27T02:43:38.136Z,943.45
2017-12-27T02:44:48.114Z,943.49
2017-12-27T02:45:58.092Z,943.49
2017-12-27T02:47:07.807Z,943.52
2017-12-27T02:48:17.792Z,943.57
2017-12-27T02:49:27.775Z,943.53
2017-12-27T02:50:37.753Z,943.56
2017-12-27T02:51:47.729Z,943.52
2017-12-27T02:52:57.442Z,943.5
2017-12-27T02:54:07.439Z,943.51
2017-12-27T02:55:17.424Z,943.46
2017-12-27T02:56:27.401Z,943.51
2017-12-27T02:57:37.116Z,943.52
2017-12-27T02:58:46.824Z,943.48
2017-12-27T02:59:56.796Z,943.56
2017-12-27T03:01:06.252Z,943.53
2017-12-27T03:02:16.226Z,943.5
2017-12-27T03:03:25.936Z,943.53
2017-12-27T03:04:35.914Z,943.58
2017-12-27T03:05:45.631Z,943.54
2017-12-27T03:06:55.604Z,943.63
2017-12-27T03:08:05.579Z,943.62
2017-12-27T03:09:15.557Z,943.64
2017-12-27T03:10:25.570Z,943.73
2017-12-27T03:11:35.548Z,943.69
2017-12-27T03:12:45.522Z,943.73
2017-12-27T03:13:55.552Z,943.74
2017-12-27T03:15:05.272Z,943.78
2017-12-27T03:16:15.252Z,943.81
2017-12-27T03:17:24.968Z,943.73
2017-12-27T03:18:34.685Z,943.79
2017-12-27T03:19:44.134Z,943.76
2017-12-27T03:20:54.163Z,943.86
2017-12-27T03:22:03.609Z,943.76
2017-12-27T03:23:13.582Z,943.83
2017-12-27T03:24:23.605Z,943.88
2017-12-27T03:25:33.311Z,943.85
2017-12-27T03:26:43.332Z,943.86
2017-12-27T03:27:52.776Z,943.84
2017-12-27T03:29:02.753Z,943.88
2017-12-27T03:30:12.727Z,943.86
2017-12-27T03:31:22.717Z,943.85
2017-12-27T03:32:32.432Z,943.89
2017-12-27T03:33:42.143Z,943.89
2017-12-27T03:34:52.118Z,943.93
2017-12-27T03:36:02.091Z,943.91
2017-12-27T03:37:11.807Z,943.95
2017-12-27T03:38:21.778Z,943.98
2017-12-27T03:39:31.489Z,943.95
2017-12-27T03:40:41.474Z,943.98
2017-12-27T03:41:51.186Z,943.92
2017-12-27T03:43:00.900Z,943.95
2017-12-27T03:44:10.874Z,943.97
2017-12-27T03:45:20.848Z,943.94
2017-12-27T03:46:30.831Z,943.98
2017-12-27T03:47:40.541Z,943.98
2017-12-27T03:48:50.260Z,944.01
2017-12-27T03:49:59.704Z,944.01
2017-12-27T03:51:09.413Z,943.97
2017-12-27T03:52:19.127Z,944.01
2017-12-27T03:53:29.101Z,944.07
2017-12-27T03:54:39.107Z,944.08
2017-12-27T03:55:49.082Z,944.08
2017-12-27T03:56:58.795Z,944.06
2017-12-27T03:58:08.549Z,944.08
2017-12-27T03:59:18.524Z,944.09
2017-12-27T04:04:29.071Z,944.15
2017-12-27T04:05:39.044Z,944.18
2017-12-27T04:06:49.021Z,944.18
2017-12-27T04:07:58.997Z,944.2
2017-12-27T04:09:08.711Z,944.25
2017-12-27T04:10:18.694Z,944.3
2017-12-27T04:11:28.721Z,944.27
2017-12-27T04:12:38.427Z,944.28
2017-12-27T04:13:48.399Z,944.37
2017-12-27T04:14:58.108Z,944.37
2017-12-27T04:16:07.817Z,944.36
2017-12-27T04:17:17.527Z,944.34
2017-12-27T04:18:27.503Z,944.33
2017-12-27T04:19:37.477Z,944.38
2017-12-27T04:20:47.452Z,944.42
2017-12-27T04:21:57.426Z,944.45
2017-12-27T04:23:07.131Z,944.43
2017-12-27T04:24:17.102Z,944.47
2017-12-27T04:25:27.080Z,944.54
2017-12-27T04:26:37.056Z,944.54
2017-12-27T04:27:47.034Z,944.51
2017-12-27T04:28:57.007Z,944.48
2017-12-27T04:30:06.717Z,944.45
2017-12-27T04:31:16.688Z,944.47
2017-12-27T04:32:26.663Z,944.53
2017-12-27T04:33:36.636Z,944.5
2017-12-27T04:34:46.349Z,944.53
2017-12-27T04:35:56.322Z,944.56
2017-12-27T04:37:06.297Z,944.57
2017-12-27T04:38:16.276Z,944.64
2017-12-27T04:39:26.250Z,944.62
2017-12-27T04:40:35.961Z,944.6
2017-12-27T04:41:45.939Z,944.67
2017-12-27T04:42:55.912Z,944.69
2017-12-27T04:44:05.630Z,944.7
2017-12-27T04:45:15.605Z,944.67
2017-12-27T04:46:25.582Z,944.69
2017-12-27T04:47:35.559Z,944.7
2017-12-27T04:48:45.267Z,944.71
2017-12-27T04:49:54.981Z,944.71
2017-12-27T04:51:04.691Z,944.68
2017-12-27T04:52:14.673Z,944.67
2017-12-27T04:53:24.117Z,944.69
2017-12-27T04:54:34.102Z,944.77
2017-12-27T04:55:44.078Z,944.71
2017-12-27T04:56:54.052Z,944.7
2017-12-27T04:58:03.761Z,944.71
2017-12-27T04:59:13.741Z,944.73
2017-12-27T05:00:23.190Z,944.74
2017-12-27T05:01:32.907Z,944.78
2017-12-27T05:02:42.895Z,944.79
2017-12-27T05:03:52.867Z,944.77
2017-12-27T05:05:02.845Z,944.77
2017-12-27T05:06:12.818Z,944.79
2017-12-27T05:07:22.793Z,944.82
2017-12-27T05:08:32.765Z,944.77
2017-12-27T05:09:42.752Z,944.82
2017-12-27T05:10:52.731Z,944.81
2017-12-27T05:12:02.443Z,944.74
2017-12-27T05:13:12.158Z,944.77
2017-12-27T05:14:22.149Z,944.77
2017-12-27T05:15:31.594Z,944.75
2017-12-27T05:16:41.571Z,944.76
2017-12-27T05:17:51.023Z,944.79
2017-12-27T05:19:00.734Z,944.76
2017-12-27T05:20:10.450Z,944.79
2017-12-27T05:21:20.421Z,944.79
2017-12-27T05:22:30.402Z,944.83
2017-12-27T05:23:40.378Z,944.78
2017-12-27T05:24:50.359Z,944.82
2017-12-27T05:26:00.077Z,944.8
2017-12-27T05:27:10.056Z,944.8
2017-12-27T05:28:19.768Z,944.83
2017-12-27T05:29:29.740Z,944.8
2017-12-27T05:30:39.716Z,944.79
2017-12-27T05:31:49.695Z,944.87
2017-12-27T05:32:59.669Z,944.81
2017-12-27T05:34:09.382Z,944.82
2017-12-27T05:35:19.092Z,944.84
2017-12-27T05:36:28.803Z,944.86
2017-12-27T05:37:38.780Z,944.93
2017-12-27T05:38:48.762Z,944.87
2017-12-27T05:39:58.735Z,944.86
2017-12-27T05:41:08.180Z,944.87
2017-12-27T05:42:18.159Z,944.91
2017-12-27T05:43:27.605Z,944.89
2017-12-27T05:44:37.582Z,944.91
2017-12-27T05:45:47.552Z,944.94
2017-12-27T05:46:57.531Z,944.92
2017-12-27T05:48:07.503Z,944.92
2017-12-27T05:49:17.221Z,944.97
2017-12-27T05:50:26.931Z,944.94
2017-12-27T05:51:36.379Z,944.88
2017-12-27T05:52:46.351Z,944.93
2017-12-27T05:53:56.325Z,944.98
2017-12-27T05:55:06.295Z,944.91
2017-12-27T05:56:16.269Z,944.97
2017-12-27T05:57:25.452Z,945.03
2017-12-27T05:58:35.432Z,945.04
2017-12-27T05:59:45.405Z,945.07
2017-12-27T06:00:55.378Z,945.08
2017-12-27T06:02:05.350Z,945.06
2017-12-27T06:03:15.323Z,945.05
2017-12-27T06:04:25.307Z,945.07
2017-12-27T06:05:35.015Z,945.08
2017-12-27T06:06:45.039Z,945.07
2017-12-27T06:07:55.009Z,945.08
2017-12-27T06:09:04.989Z,945.1
2017-12-27T06:10:14.774Z,945.11
2017-12-27T06:11:24.486Z,945.14
2017-12-27T06:12:34.461Z,945.09
2017-12-27T06:13:44.436Z,945.16
2017-12-27T06:14:54.409Z,945.18
2017-12-27T06:16:04.384Z,945.17
2017-12-27T06:17:15.574Z,945.15
2017-12-27T06:18:25.545Z,945.26
2017-12-27T06:19:35.519Z,945.23
2017-12-27T06:20:45.502Z,945.23
2017-12-27T06:21:54.951Z,945.22
2017-12-27T06:23:04.927Z,945.26
2017-12-27T06:24:14.635Z,945.27
2017-12-27T06:25:24.612Z,945.28
2017-12-27T06:26:34.329Z,945.26
2017-12-27T06:27:44.305Z,945.33
2017-12-27T06:28:54.286Z,945.37
2017-12-27T06:30:04.267Z,945.35
2017-12-27T06:31:14.266Z,945.32
2017-12-27T06:32:23.710Z,945.34
2017-12-27T06:33:33.701Z,945.42
2017-12-27T06:34:43.688Z,945.41
2017-12-27T06:35:53.661Z,945.39
2017-12-27T06:37:03.633Z,945.44
2017-12-27T06:38:13.611Z,945.52
2017-12-27T06:39:22.792Z,945.53
2017-12-27T06:40:32.507Z,945.58
2017-12-27T06:41:42.480Z,945.59
2017-12-27T06:42:52.454Z,945.62
2017-12-27T06:44:02.438Z,945.62
2017-12-27T06:45:11.886Z,945.66
2017-12-27T06:46:21.605Z,945.73
2017-12-27T06:47:31.314Z,945.76
2017-12-27T06:48:41.294Z,945.74
2017-12-27T06:49:51.269Z,945.71
2017-12-27T06:51:00.714Z,945.74
2017-12-27T06:52:12.691Z,945.72
2017-12-27T06:53:22.674Z,945.74
2017-12-27T06:54:32.383Z,945.74
2017-12-27T06:55:42.358Z,945.74
2017-12-27T06:56:52.336Z,945.81
2017-12-27T06:58:02.311Z,945.8
2017-12-27T06:59:12.022Z,945.82
2017-12-27T07:00:21.732Z,945.82
2017-12-27T07:01:31.460Z,945.77
2017-12-27T07:02:40.908Z,945.77
2017-12-27T07:03:50.880Z,945.82
2017-12-27T07:05:00.590Z,945.83
2017-12-27T07:06:10.570Z,945.82
2017-12-27T07:07:20.547Z,945.87
2017-12-27T07:08:30.527Z,945.9
2017-12-27T07:09:40.236Z,945.94
2017-12-27T07:10:49.944Z,945.96
2017-12-27T07:11:59.392Z,945.95
2017-12-27T07:13:09.103Z,945.98
2017-12-27T07:14:19.077Z,945.96
2017-12-27T07:15:29.047Z,945.99
2017-12-27T07:16:39.021Z,946.01
2017-12-27T07:17:48.996Z,946.02
2017-12-27T07:18:58.971Z,946.09
2017-12-27T07:20:08.951Z,946.09
2017-12-27T07:21:18.667Z,946.1
2017-12-27T07:22:28.645Z,946.05
2017-12-27T07:23:38.620Z,946.05
2017-12-27T07:24:48.330Z,946.14
2017-12-27T07:25:58.040Z,946.18
2017-12-27T07:27:07.749Z,946.15
2017-12-27T07:28:17.460Z,946.25
2017-12-27T07:29:27.178Z,946.23
2017-12-27T07:30:37.159Z,946.24
2017-12-27T07:31:47.137Z,946.27
2017-12-27T07:32:57.117Z,946.25
2017-12-27T07:34:06.836Z,946.27
2017-12-27T07:35:16.555Z,946.33
2017-12-27T07:36:26.267Z,946.3
2017-12-27T07:37:36.249Z,946.33
2017-12-27T07:38:46.227Z,946.36
2017-12-27T07:39:56.205Z,946.33
2017-12-27T07:41:05.923Z,946.36
2017-12-27T07:42:15.902Z,946.37
2017-12-27T07:43:25.082Z,946.46
2017-12-27T07:44:34.800Z,946.43
2017-12-27T07:45:44.775Z,946.44
2017-12-27T07:46:54.752Z,946.49
2017-12-27T07:48:04.728Z,946.46
2017-12-27T07:49:14.708Z,946.47
2017-12-27T07:50:24.691Z,946.58
2017-12-27T07:51:34.411Z,946.56
2017-12-27T07:52:44.444Z,946.58
2017-12-27T07:53:54.418Z,946.65
2017-12-27T07:55:04.398Z,946.64
2017-12-27T07:56:14.111Z,946.69
2017-12-27T07:57:23.822Z,946.74
2017-12-27T07:58:33.800Z,946.77
2017-12-27T07:59:42.987Z,946.82
2017-12-27T08:00:52.696Z,946.87
2017-12-27T08:02:02.663Z,946.98
2017-12-27T08:03:12.374Z,946.95
2017-12-27T08:04:22.353Z,946.92
2017-12-27T08:05:32.068Z,947
2017-12-27T08:06:42.052Z,947.04
2017-12-27T08:07:51.768Z,946.97
2017-12-27T08:09:01.743Z,946.97
2017-12-27T08:10:11.456Z,947.04
2017-12-27T08:11:21.168Z,947.02
2017-12-27T08:12:30.931Z,947.1
2017-12-27T08:13:40.925Z,947.15
2017-12-27T08:14:50.107Z,947.18
2017-12-27T08:15:59.823Z,947.18
2017-12-27T08:17:09.799Z,947.2
2017-12-27T08:18:19.510Z,947.21
2017-12-27T08:19:28.958Z,947.23
2017-12-27T08:20:38.939Z,947.26
2017-12-27T08:21:48.915Z,947.27
2017-12-27T08:22:58.898Z,947.24
2017-12-27T08:24:08.876Z,947.27
2017-12-27T08:25:18.591Z,947.28
2017-12-27T08:26:28.564Z,947.28
2017-12-27T08:27:38.275Z,947.28
2017-12-27T08:28:48.253Z,947.31
2017-12-27T08:29:58.230Z,947.3
2017-12-27T08:31:07.678Z,947.3
2017-12-27T08:32:17.657Z,947.33
2017-12-27T08:33:27.105Z,947.39
2017-12-27T08:34:37.078Z,947.38
2017-12-27T08:35:47.057Z,947.5
2017-12-27T08:36:57.036Z,947.45
2017-12-27T08:38:06.751Z,947.51
2017-12-27T08:39:16.464Z,947.52
2017-12-27T08:40:26.178Z,947.59
2017-12-27T08:41:36.150Z,947.6
2017-12-27T08:42:46.130Z,947.58
2017-12-27T08:43:56.165Z,947.6
2017-12-27T08:45:06.141Z,947.53
2017-12-27T08:46:16.116Z,947.63
2017-12-27T08:47:25.830Z,947.68
2017-12-27T08:48:35.806Z,947.68
2017-12-27T08:49:45.521Z,947.73
2017-12-27T08:50:55.499Z,947.77
2017-12-27T08:52:05.477Z,947.78
2017-12-27T08:53:15.188Z,947.82
2017-12-27T08:54:25.167Z,947.89
2017-12-27T08:55:35.142Z,947.86
2017-12-27T08:56:44.866Z,947.95
2017-12-27T08:57:54.578Z,947.94
2017-12-27T08:59:04.290Z,947.97
2017-12-27T09:00:14.516Z,947.94
2017-12-27T09:01:24.223Z,947.98
2017-12-27T09:02:34.205Z,948.03
2017-12-27T09:03:43.921Z,948.02
2017-12-27T09:04:53.929Z,948.07
2017-12-27T09:06:03.927Z,948.04
2017-12-27T09:07:13.640Z,948.09
2017-12-27T09:08:23.089Z,948.16
2017-12-27T09:09:33.068Z,948.18
2017-12-27T09:10:42.787Z,948.2
2017-12-27T09:11:52.760Z,948.19
2017-12-27T09:13:02.734Z,948.25
2017-12-27T09:14:12.710Z,948.28
2017-12-27T09:15:22.466Z,948.29
2017-12-27T09:16:32.446Z,948.35
2017-12-27T09:17:42.433Z,948.38
2017-12-27T09:18:52.147Z,948.4
2017-12-27T09:20:01.864Z,948.39
2017-12-27T09:21:11.848Z,948.38
2017-12-27T09:22:21.565Z,948.44
2017-12-27T09:23:31.289Z,948.43
2017-12-27T09:24:41.268Z,948.41
2017-12-27T09:25:51.248Z,948.49
2017-12-27T09:27:00.692Z,948.53
2017-12-27T09:28:10.677Z,948.54
2017-12-27T09:29:20.390Z,948.57
2017-12-27T09:30:30.367Z,948.57
2017-12-27T09:31:40.346Z,948.61
2017-12-27T09:32:50.331Z,948.65
2017-12-27T09:34:00.308Z,948.71
2017-12-27T09:35:10.291Z,948.7
2017-12-27T09:36:20.270Z,948.71
2017-12-27T09:37:29.718Z,948.73
2017-12-27T09:38:39.693Z,948.78
2017-12-27T09:39:49.405Z,948.77
2017-12-27T09:40:58.589Z,948.84
2017-12-27T09:42:08.571Z,948.78
2017-12-27T09:43:18.547Z,948.82
2017-12-27T09:44:28.530Z,948.87
2017-12-27T09:45:38.247Z,948.86
2017-12-27T09:46:48.222Z,948.87
2017-12-27T09:47:58.223Z,948.93
2017-12-27T09:49:07.936Z,948.92
2017-12-27T09:50:17.921Z,948.93
2017-12-27T09:51:27.902Z,948.95
2017-12-27T09:52:37.876Z,948.98
2017-12-27T09:53:47.851Z,948.99
2017-12-27T09:54:57.831Z,949.02
2017-12-27T09:56:07.812Z,949.04
2017-12-27T09:57:17.532Z,949.1
2017-12-27T09:58:27.514Z,949.09
2017-12-27T09:59:37.230Z,949.08
2017-12-27T10:00:46.683Z,949.14
2017-12-27T10:01:56.398Z,949.12
2017-12-27T10:03:06.417Z,949.16
2017-12-27T10:04:16.396Z,949.12
2017-12-27T10:05:26.371Z,949.23
2017-12-27T10:06:36.080Z,949.25
2017-12-27T10:07:46.056Z,949.3
2017-12-27T10:08:56.034Z,949.31
2017-12-27T10:10:06.011Z,949.35
2017-12-27T10:11:15.993Z,949.37
2017-12-27T10:12:25.965Z,949.42
2017-12-27T10:13:35.946Z,949.45
2017-12-27T10:14:45.923Z,949.52
2017-12-27T10:15:55.902Z,949.53
2017-12-27T10:17:05.883Z,949.56
2017-12-27T10:18:15.864Z,949.52
2017-12-27T10:19:25.840Z,949.57
2017-12-27T10:20:35.883Z,949.58
2017-12-27T10:21:45.862Z,949.54
2017-12-27T10:22:55.856Z,949.62
2017-12-27T10:24:05.831Z,949.61
2017-12-27T10:25:15.279Z,949.6
2017-12-27T10:26:24.733Z,949.61
2017-12-27T10:27:34.447Z,949.68
2017-12-27T10:28:44.162Z,949.65
2017-12-27T10:29:53.885Z,949.63
2017-12-27T10:31:03.861Z,949.68
2017-12-27T10:32:13.839Z,949.7
2017-12-27T10:33:23.813Z,949.75
2017-12-27T10:34:33.524Z,949.79
2017-12-27T10:35:43.502Z,949.79
2017-12-27T10:36:53.484Z,949.82
2017-12-27T10:38:03.459Z,949.87
2017-12-27T10:39:13.176Z,949.82
2017-12-27T10:40:22.359Z,949.83
2017-12-27T10:41:32.342Z,949.84
2017-12-27T10:42:42.058Z,949.85
2017-12-27T10:43:52.035Z,949.88
2017-12-27T10:45:02.015Z,949.88
2017-12-27T10:46:11.993Z,949.9
2017-12-27T10:47:21.708Z,949.96
2017-12-27T10:48:31.425Z,949.92
2017-12-27T10:49:41.403Z,949.89
2017-12-27T10:50:51.115Z,949.95
2017-12-27T10:52:01.090Z,949.95
2017-12-27T10:53:10.538Z,949.95
2017-12-27T10:54:20.513Z,949.91
2017-12-27T10:55:29.977Z,949.95
2017-12-27T10:56:39.735Z,949.96
2017-12-27T10:57:49.446Z,949.97
2017-12-27T10:58:59.423Z,950.01
2017-12-27T11:00:09.410Z,950
2017-12-27T11:01:19.146Z,950.06
2017-12-27T11:02:28.595Z,949.97
2017-12-27T11:03:38.571Z,950.02
2017-12-27T11:04:48.284Z,950
2017-12-27T11:05:57.471Z,949.99
2017-12-27T11:07:07.445Z,950.03
2017-12-27T11:08:17.428Z,950.01
2017-12-27T11:09:26.877Z,950.01
2017-12-27T11:10:36.595Z,949.98
2017-12-27T11:11:46.569Z,950.04
2017-12-27T11:12:56.017Z,949.97
2017-12-27T11:14:06.493Z,949.96
2017-12-27T11:15:16.468Z,949.97
2017-12-27T11:16:26.187Z,949.97
2017-12-27T11:17:36.188Z,949.95
2017-12-27T11:18:45.899Z,950.03
2017-12-27T11:19:55.887Z,950.04
2017-12-27T11:21:05.337Z,950.04
2017-12-27T11:22:15.053Z,950.11
2017-12-27T11:23:25.032Z,950.06
2017-12-27T11:24:35.007Z,950.05
2017-12-27T11:25:44.993Z,950.08
2017-12-27T11:26:54.976Z,950.12
2017-12-27T11:28:04.689Z,950.11
2017-12-27T11:29:14.405Z,950.12
2017-12-27T11:30:23.852Z,950.1
2017-12-27T11:31:33.833Z,950.17
2017-12-27T11:32:43.547Z,950.12
2017-12-27T11:33:53.267Z,950.22
2017-12-27T11:35:03.246Z,950.24
2017-12-27T11:36:13.223Z,950.25
2017-12-27T11:37:22.142Z,950.23
2017-12-27T11:38:31.860Z,950.3
2017-12-27T11:39:41.584Z,950.25
2017-12-27T11:40:51.559Z,950.33
2017-12-27T11:42:01.542Z,950.4
2017-12-27T11:43:11.254Z,950.35
2017-12-27T11:44:21.234Z,950.38
2017-12-27T11:45:31.212Z,950.34
2017-12-27T11:46:40.945Z,950.36
2017-12-27T11:47:50.934Z,950.38
2017-12-27T11:49:00.912Z,950.37
2017-12-27T11:50:10.894Z,950.39
2017-12-27T11:51:20.870Z,950.39
2017-12-27T11:52:30.851Z,950.38
2017-12-27T11:53:40.567Z,950.44
2017-12-27T11:54:50.550Z,950.39
2017-12-27T11:56:00.270Z,950.36
2017-12-27T11:57:10.246Z,950.36
2017-12-27T11:58:20.226Z,950.38
2017-12-27T11:59:30.204Z,950.31
2017-12-27T12:00:40.183Z,950.37
2017-12-27T12:01:49.902Z,950.29
2017-12-27T12:02:59.351Z,950.27
2017-12-27T12:04:09.328Z,950.23
2017-12-27T12:05:18.777Z,950.21
2017-12-27T12:06:28.492Z,950.18
2017-12-27T12:07:38.205Z,950.2
2017-12-27T12:08:47.923Z,950.21
2017-12-27T12:09:57.911Z,950.21
2017-12-27T12:11:07.628Z,950.27
2017-12-27T12:12:17.341Z,950.27
2017-12-27T12:13:27.316Z,950.34
2017-12-27T12:14:37.293Z,950.34
2017-12-27T12:15:47.277Z,950.35
2017-12-27T12:16:57.258Z,950.41
2017-12-27T12:18:07.237Z,950.36
2017-12-27T12:19:16.946Z,950.37
2017-12-27T12:20:26.930Z,950.41
2017-12-27T12:21:36.638Z,950.46
2017-12-27T12:22:46.364Z,950.31
2017-12-27T12:23:58.081Z,950.37
2017-12-27T12:25:08.061Z,950.36
2017-12-27T12:26:18.041Z,950.38
2017-12-27T12:27:28.017Z,950.37
2017-12-27T12:28:37.997Z,950.36
2017-12-27T12:29:47.978Z,950.41
2017-12-27T12:30:57.705Z,950.38
2017-12-27T12:32:07.689Z,950.38
2017-12-27T12:33:17.403Z,950.41
2017-12-27T12:34:27.115Z,950.4
2017-12-27T12:35:36.572Z,950.46
2017-12-27T12:36:46.551Z,950.48
2017-12-27T12:37:56.534Z,950.51
2017-12-27T12:39:06.512Z,950.52
2017-12-27T12:40:16.224Z,950.54
2017-12-27T12:41:26.202Z,950.54
2017-12-27T12:42:35.918Z,950.6
2017-12-27T12:43:45.901Z,950.55
2017-12-27T12:44:55.879Z,950.52
2017-12-27T12:46:05.873Z,950.55
2017-12-27T12:47:15.590Z,950.6
2017-12-27T12:48:25.309Z,950.59
2017-12-27T12:49:35.293Z,950.58
2017-12-27T12:50:45.267Z,950.62
2017-12-27T12:51:55.244Z,950.64
2017-12-27T12:53:04.965Z,950.65
2017-12-27T12:54:14.677Z,950.66
2017-12-27T12:55:24.662Z,950.67
2017-12-27T12:56:34.386Z,950.65
2017-12-27T12:57:44.422Z,950.73
2017-12-27T12:58:54.400Z,950.65
2017-12-27T13:00:04.158Z,950.65
2017-12-27T13:01:13.606Z,950.7
2017-12-27T13:02:23.055Z,950.75
2017-12-27T13:03:33.030Z,950.77
2017-12-27T13:04:42.745Z,950.74
2017-12-27T13:05:52.728Z,950.73
2017-12-27T13:07:02.491Z,950.8
2017-12-27T13:08:12.470Z,950.86
2017-12-27T13:09:22.443Z,950.89
2017-12-27T13:10:32.418Z,950.9
2017-12-27T13:11:42.398Z,950.88
2017-12-27T13:12:52.380Z,951
2017-12-27T13:14:02.355Z,950.98
2017-12-27T13:15:12.086Z,950.95
2017-12-27T13:16:22.058Z,950.97
2017-12-27T13:17:32.036Z,951.12
2017-12-27T13:18:41.746Z,951.07
2017-12-27T13:19:51.195Z,951.11
2017-12-27T13:21:01.179Z,951.11
2017-12-27T13:22:10.887Z,951.07
2017-12-27T13:23:20.601Z,951.06
2017-12-27T13:24:30.581Z,951.04
2017-12-27T13:25:40.556Z,951.07
2017-12-27T13:26:50.533Z,951.15
2017-12-27T13:28:00.514Z,951.12
2017-12-27T13:29:10.225Z,951.16
2017-12-27T13:30:20.205Z,951.19
2017-12-27T13:31:29.650Z,951.2
2017-12-27T13:32:39.360Z,951.2
2017-12-27T13:33:49.081Z,951.23
2017-12-27T13:34:59.075Z,951.28
2017-12-27T13:36:09.054Z,951.29
2017-12-27T13:37:19.035Z,951.41
2017-12-27T13:38:29.009Z,951.4
2017-12-27T13:39:38.983Z,951.43
2017-12-27T13:40:48.958Z,951.38
2017-12-27T13:41:58.934Z,951.38
2017-12-27T13:43:08.915Z,951.43
2017-12-27T13:44:18.892Z,951.41
2017-12-27T13:45:28.874Z,951.39
2017-12-27T13:46:38.850Z,951.41
2017-12-27T13:47:48.820Z,951.41
2017-12-27T13:48:58.275Z,951.38
2017-12-27T13:50:07.994Z,951.4
2017-12-27T13:51:17.974Z,951.45
2017-12-27T13:52:27.685Z,951.43
2017-12-27T13:53:37.400Z,951.43
2017-12-27T13:54:47.374Z,951.47
2017-12-27T13:55:57.138Z,951.46
2017-12-27T13:57:07.120Z,951.49
2017-12-27T13:58:17.095Z,951.55
2017-12-27T13:59:27.077Z,951.59
2017-12-27T14:00:37.100Z,951.57
2017-12-27T14:01:47.082Z,951.62
2017-12-27T14:02:56.794Z,951.59
2017-12-27T14:04:06.505Z,951.54
2017-12-27T14:05:15.689Z,951.53
2017-12-27T14:06:25.720Z,951.62
2017-12-27T14:07:35.433Z,951.66
2017-12-27T14:08:47.443Z,951.72
2017-12-27T14:09:57.419Z,951.74
2017-12-27T14:11:07.393Z,951.72
2017-12-27T14:12:17.372Z,951.73
2017-12-27T14:13:26.823Z,951.73
2017-12-27T14:14:36.806Z,951.77
2017-12-27T14:15:46.790Z,951.76
2017-12-27T14:16:56.761Z,951.76
2017-12-27T14:18:06.475Z,951.81
2017-12-27T14:19:16.448Z,951.76
2017-12-27T14:20:26.158Z,951.79
2017-12-27T14:21:35.866Z,951.83
2017-12-27T14:22:45.844Z,951.82
2017-12-27T14:23:55.831Z,951.84
2017-12-27T14:25:05.552Z,951.83
2017-12-27T14:26:15.261Z,951.87
2017-12-27T14:27:24.707Z,951.91
2017-12-27T14:28:34.415Z,951.85
2017-12-27T14:29:44.400Z,951.86
2017-12-27T14:30:54.374Z,951.89
2017-12-27T14:32:04.356Z,951.92
2017-12-27T14:33:14.074Z,951.9
2017-12-27T14:34:24.048Z,951.9
2017-12-27T14:35:33.758Z,951.95
2017-12-27T14:36:43.740Z,951.94
2017-12-27T14:37:53.715Z,951.95
2017-12-27T14:39:03.453Z,951.96